sensor_id;sensor_type;location;lat;lon;timestamp;pressure;altitude;pressure_sealevel;temperature;humidity
43420;BME280;29017;51.514;-0.178;2023-03-30T00:01:16;99764.91;;;14.41;93.80
43420;BME280;29017;51.514;-0.178;2023-03-30T00:03:43;99772.03;;;14.40;94.08
43420;BME280;29017;51.514;-0.178;2023-03-30T00:06:12;99766.94;;;14.39;93.52
43420;BME280;29017;51.514;-0.178;2023-03-30T00:08:47;99763.28;;;14.40;93.75
43420;BME280;29017;51.514;-0.178;2023-03-30T00:11:14;99769.81;;;14.37;93.70
43420;BME280;29017;51.514;-0.178;2023-03-30T00:13:42;99771.00;;;14.35;93.44
43420;BME280;29017;51.514;-0.178;2023-03-30T00:16:11;99778.09;;;14.34;93.72
43420;BME280;29017;51.514;-0.178;2023-03-30T00:18:39;99769.34;;;14.34;93.30
43420;BME280;29017;51.514;-0.178;2023-03-30T00:21:06;99773.63;;;14.35;93.44
43420;BME280;29017;51.514;-0.178;2023-03-30T00:23:35;99777.91;;;14.36;93.44
43420;BME280;29017;51.514;-0.178;2023-03-30T00:26:02;99777.91;;;14.36;92.98
43420;BME280;29017;51.514;-0.178;2023-03-30T00:28:30;99769.56;;;14.32;92.36
43420;BME280;29017;51.514;-0.178;2023-03-30T00:30:57;99785.66;;;14.31;92.06
43420;BME280;29017;51.514;-0.178;2023-03-30T00:33:24;99772.41;;;14.31;91.91
43420;BME280;29017;51.514;-0.178;2023-03-30T00:36:09;99766.50;;;14.29;91.92
43420;BME280;29017;51.514;-0.178;2023-03-30T00:38:37;99772.81;;;14.28;91.47
43420;BME280;29017;51.514;-0.178;2023-03-30T00:41:04;99764.09;;;14.27;91.25
43420;BME280;29017;51.514;-0.178;2023-03-30T00:43:32;99770.78;;;14.30;91.19
43420;BME280;29017;51.514;-0.178;2023-03-30T00:45:59;99770.59;;;14.31;91.25
43420;BME280;29017;51.514;-0.178;2023-03-30T00:48:28;99755.53;;;14.32;91.27
43420;BME280;29017;51.514;-0.178;2023-03-30T00:55:55;99741.06;;;14.34;91.26
43420;BME280;29017;51.514;-0.178;2023-03-30T00:58:23;99740.25;;;14.27;90.17
43420;BME280;29017;51.514;-0.178;2023-03-30T01:00:51;99741.28;;;14.26;89.97
43420;BME280;29017;51.514;-0.178;2023-03-30T01:05:55;99745.53;;;14.21;89.67
43420;BME280;29017;51.514;-0.178;2023-03-30T01:08:24;99738.63;;;14.20;89.51
43420;BME280;29017;51.514;-0.178;2023-03-30T01:10:52;99753.88;;;14.18;89.15
43420;BME280;29017;51.514;-0.178;2023-03-30T01:13:21;99752.47;;;14.22;90.08
43420;BME280;29017;51.514;-0.178;2023-03-30T01:18:23;99747.56;;;14.25;90.42
43420;BME280;29017;51.514;-0.178;2023-03-30T01:20:57;99750.03;;;14.20;89.64
43420;BME280;29017;51.514;-0.178;2023-03-30T01:26:13;99748.38;;;14.19;89.99
43420;BME280;29017;51.514;-0.178;2023-03-30T01:46:47;99756.31;;;13.99;93.68
43420;BME280;29017;51.514;-0.178;2023-03-30T01:49:18;99754.66;;;13.98;94.81
43420;BME280;29017;51.514;-0.178;2023-03-30T01:51:56;99748.56;;;13.91;94.73
43420;BME280;29017;51.514;-0.178;2023-03-30T01:54:31;99755.06;;;13.89;95.64
43420;BME280;29017;51.514;-0.178;2023-03-30T01:57:03;99757.91;;;13.87;96.39
43420;BME280;29017;51.514;-0.178;2023-03-30T01:59:35;99764.59;;;13.83;96.31
43420;BME280;29017;51.514;-0.178;2023-03-30T02:02:05;99750.56;;;13.76;96.23
43420;BME280;29017;51.514;-0.178;2023-03-30T02:04:35;99771.50;;;13.71;95.80
43420;BME280;29017;51.514;-0.178;2023-03-30T02:07:06;99747.88;;;13.63;96.03
43420;BME280;29017;51.514;-0.178;2023-03-30T02:09:36;99759.28;;;13.63;96.41
43420;BME280;29017;51.514;-0.178;2023-03-30T02:12:04;99752.75;;;13.59;96.34
43420;BME280;29017;51.514;-0.178;2023-03-30T02:14:31;99764.31;;;13.52;95.24
43420;BME280;29017;51.514;-0.178;2023-03-30T02:17:03;99751.09;;;13.45;94.67
43420;BME280;29017;51.514;-0.178;2023-03-30T02:19:32;99759.41;;;13.42;93.77
43420;BME280;29017;51.514;-0.178;2023-03-30T02:22:03;99762.88;;;13.43;93.92
43420;BME280;29017;51.514;-0.178;2023-03-30T02:24:31;99764.91;;;13.41;93.34
43420;BME280;29017;51.514;-0.178;2023-03-30T02:26:59;99772.63;;;13.42;93.36
43420;BME280;29017;51.514;-0.178;2023-03-30T02:29:28;99771.19;;;13.46;94.29
43420;BME280;29017;51.514;-0.178;2023-03-30T02:31:57;99773.44;;;13.43;93.20
43420;BME280;29017;51.514;-0.178;2023-03-30T02:37:07;99764.91;;;13.47;92.07
43420;BME280;29017;51.514;-0.178;2023-03-30T02:42:21;99770.81;;;13.49;89.87
43420;BME280;29017;51.514;-0.178;2023-03-30T02:54:56;99784.63;;;13.45;86.71
43420;BME280;29017;51.514;-0.178;2023-03-30T02:57:28;99788.28;;;13.44;85.93
43420;BME280;29017;51.514;-0.178;2023-03-30T02:59:59;99777.31;;;13.40;85.79
43420;BME280;29017;51.514;-0.178;2023-03-30T03:02:28;99786.66;;;13.43;86.75
43420;BME280;29017;51.514;-0.178;2023-03-30T03:04:57;99778.53;;;13.44;87.67
43420;BME280;29017;51.514;-0.178;2023-03-30T03:07:29;99784.63;;;13.45;87.83
43420;BME280;29017;51.514;-0.178;2023-03-30T03:09:59;99786.47;;;13.44;88.77
43420;BME280;29017;51.514;-0.178;2023-03-30T03:12:26;99786.22;;;13.39;88.32
43420;BME280;29017;51.514;-0.178;2023-03-30T03:14:54;99788.88;;;13.39;89.43
43420;BME280;29017;51.514;-0.178;2023-03-30T03:17:21;99789.06;;;13.38;89.27
43420;BME280;29017;51.514;-0.178;2023-03-30T03:19:49;99785.81;;;13.36;89.63
43420;BME280;29017;51.514;-0.178;2023-03-30T03:22:16;99786.38;;;13.31;89.54
43420;BME280;29017;51.514;-0.178;2023-03-30T03:24:43;99788.00;;;13.25;89.23
43420;BME280;29017;51.514;-0.178;2023-03-30T03:27:10;99782.09;;;13.23;89.76
43420;BME280;29017;51.514;-0.178;2023-03-30T03:29:38;99784.72;;;13.23;90.13
43420;BME280;29017;51.514;-0.178;2023-03-30T03:32:05;99785.94;;;13.21;90.28
43420;BME280;29017;51.514;-0.178;2023-03-30T03:34:32;99795.50;;;13.22;90.66
43420;BME280;29017;51.514;-0.178;2023-03-30T03:36:59;99798.53;;;13.19;89.77
43420;BME280;29017;51.514;-0.178;2023-03-30T03:39:26;99797.53;;;13.20;89.90
43420;BME280;29017;51.514;-0.178;2023-03-30T03:41:54;99796.50;;;13.21;90.56
43420;BME280;29017;51.514;-0.178;2023-03-30T03:44:21;99792.84;;;13.22;90.57
43420;BME280;29017;51.514;-0.178;2023-03-30T03:46:48;99801.41;;;13.24;91.01
43420;BME280;29017;51.514;-0.178;2023-03-30T03:49:15;99796.50;;;13.21;90.61
43420;BME280;29017;51.514;-0.178;2023-03-30T03:51:42;99797.94;;;13.23;90.78
43420;BME280;29017;51.514;-0.178;2023-03-30T03:54:09;99799.19;;;13.27;91.26
43420;BME280;29017;51.514;-0.178;2023-03-30T03:56:36;99794.72;;;13.28;90.51
43420;BME280;29017;51.514;-0.178;2023-03-30T03:59:03;99784.31;;;13.26;90.58
43420;BME280;29017;51.514;-0.178;2023-03-30T04:01:30;99789.44;;;13.28;90.89
43420;BME280;29017;51.514;-0.178;2023-03-30T04:03:57;99788.78;;;13.26;90.49
43420;BME280;29017;51.514;-0.178;2023-03-30T04:06:24;99789.44;;;13.28;91.24
43420;BME280;29017;51.514;-0.178;2023-03-30T04:08:52;99781.69;;;13.26;90.96
43420;BME280;29017;51.514;-0.178;2023-03-30T04:11:19;99782.72;;;13.25;90.94
43420;BME280;29017;51.514;-0.178;2023-03-30T04:13:47;99790.44;;;13.27;91.40
43420;BME280;29017;51.514;-0.178;2023-03-30T04:16:15;99786.56;;;13.23;90.64
43420;BME280;29017;51.514;-0.178;2023-03-30T04:18:42;99797.13;;;13.23;90.87
43420;BME280;29017;51.514;-0.178;2023-03-30T04:21:09;99792.03;;;13.21;91.17
43420;BME280;29017;51.514;-0.178;2023-03-30T04:23:38;99790.41;;;13.20;90.97
43420;BME280;29017;51.514;-0.178;2023-03-30T04:26:11;99786.31;;;13.18;91.18
43420;BME280;29017;51.514;-0.178;2023-03-30T04:28:39;99790.97;;;13.16;90.97
43420;BME280;29017;51.514;-0.178;2023-03-30T04:31:06;99793.00;;;13.14;91.39
43420;BME280;29017;51.514;-0.178;2023-03-30T04:33:36;99807.41;;;13.11;91.48
43420;BME280;29017;51.514;-0.178;2023-03-30T04:36:13;99804.91;;;13.03;90.94
43420;BME280;29017;51.514;-0.178;2023-03-30T04:38:43;99815.66;;;13.02;91.53
43420;BME280;29017;51.514;-0.178;2023-03-30T04:41:10;99801.03;;;12.99;92.05
43420;BME280;29017;51.514;-0.178;2023-03-30T04:43:39;99816.88;;;12.99;91.81
43420;BME280;29017;51.514;-0.178;2023-03-30T04:46:06;99823.56;;;12.95;91.24
43420;BME280;29017;51.514;-0.178;2023-03-30T04:48:33;99821.09;;;12.94;91.40
43420;BME280;29017;51.514;-0.178;2023-03-30T04:51:00;99824.31;;;12.89;90.68
43420;BME280;29017;51.514;-0.178;2023-03-30T04:53:27;99836.06;;;12.86;91.28
43420;BME280;29017;51.514;-0.178;2023-03-30T04:55:54;99831.78;;;12.85;91.26
43420;BME280;29017;51.514;-0.178;2023-03-30T04:58:21;99832.19;;;12.82;91.65
43420;BME280;29017;51.514;-0.178;2023-03-30T05:00:51;99836.47;;;12.83;91.54
43420;BME280;29017;51.514;-0.178;2023-03-30T05:03:19;99831.53;;;12.80;90.92
43420;BME280;29017;51.514;-0.178;2023-03-30T05:05:48;99839.09;;;12.83;91.42
43420;BME280;29017;51.514;-0.178;2023-03-30T05:08:15;99852.09;;;12.85;91.30
43420;BME280;29017;51.514;-0.178;2023-03-30T05:10:42;99850.25;;;12.85;91.31
43420;BME280;29017;51.514;-0.178;2023-03-30T05:13:09;99857.59;;;12.83;91.15
43420;BME280;29017;51.514;-0.178;2023-03-30T05:15:36;99860.78;;;12.79;90.51
43420;BME280;29017;51.514;-0.178;2023-03-30T05:18:03;99863.81;;;12.76;90.66
43420;BME280;29017;51.514;-0.178;2023-03-30T05:20:30;99865.84;;;12.74;90.84
43420;BME280;29017;51.514;-0.178;2023-03-30T05:22:57;99869.47;;;12.73;90.96
43420;BME280;29017;51.514;-0.178;2023-03-30T05:25:24;99877.75;;;12.70;91.07
43420;BME280;29017;51.514;-0.178;2023-03-30T05:27:51;99881.22;;;12.70;91.21
43420;BME280;29017;51.514;-0.178;2023-03-30T05:30:18;99878.22;;;12.73;91.26
43420;BME280;29017;51.514;-0.178;2023-03-30T05:32:45;99887.78;;;12.74;91.46
43420;BME280;29017;51.514;-0.178;2023-03-30T05:35:12;99889.00;;;12.78;91.73
43420;BME280;29017;51.514;-0.178;2023-03-30T05:37:39;99904.72;;;12.86;91.91
43420;BME280;29017;51.514;-0.178;2023-03-30T05:40:07;99910.88;;;12.94;92.21
43420;BME280;29017;51.514;-0.178;2023-03-30T05:42:35;99904.59;;;12.95;90.40
43420;BME280;29017;51.514;-0.178;2023-03-30T05:45:02;99904.78;;;12.93;90.31
43420;BME280;29017;51.514;-0.178;2023-03-30T05:47:29;99909.88;;;12.95;90.42
43420;BME280;29017;51.514;-0.178;2023-03-30T05:49:56;99917.78;;;12.95;90.26
43420;BME280;29017;51.514;-0.178;2023-03-30T05:52:23;99920.22;;;12.96;90.80
43420;BME280;29017;51.514;-0.178;2023-03-30T05:54:50;99915.41;;;13.00;91.12
43420;BME280;29017;51.514;-0.178;2023-03-30T05:57:17;99913.94;;;12.97;90.31
43420;BME280;29017;51.514;-0.178;2023-03-30T05:59:44;99914.94;;;12.96;90.25
43420;BME280;29017;51.514;-0.178;2023-03-30T06:02:11;99921.44;;;12.94;90.13
43420;BME280;29017;51.514;-0.178;2023-03-30T06:04:39;99919.41;;;12.96;90.73
43420;BME280;29017;51.514;-0.178;2023-03-30T06:07:06;99923.69;;;12.97;91.25
43420;BME280;29017;51.514;-0.178;2023-03-30T06:09:33;99922.50;;;12.99;90.61
43420;BME280;29017;51.514;-0.178;2023-03-30T06:12:00;99930.19;;;12.94;89.60
43420;BME280;29017;51.514;-0.178;2023-03-30T06:14:28;99936.47;;;12.93;89.86
43420;BME280;29017;51.514;-0.178;2023-03-30T06:16:55;99931.41;;;12.98;89.99
43420;BME280;29017;51.514;-0.178;2023-03-30T06:19:23;99935.50;;;13.01;90.43
43420;BME280;29017;51.514;-0.178;2023-03-30T06:21:50;99942.63;;;13.00;89.98
43420;BME280;29017;51.514;-0.178;2023-03-30T06:24:16;99942.06;;;13.05;90.06
43420;BME280;29017;51.514;-0.178;2023-03-30T06:26:45;99946.50;;;13.04;89.21
43420;BME280;29017;51.514;-0.178;2023-03-30T06:29:14;99941.22;;;13.04;88.93
43420;BME280;29017;51.514;-0.178;2023-03-30T06:31:41;99938.19;;;13.07;89.25
43420;BME280;29017;51.514;-0.178;2023-03-30T06:34:08;99943.75;;;13.12;89.31
43420;BME280;29017;51.514;-0.178;2023-03-30T06:36:35;99940.75;;;13.15;89.16
43420;BME280;29017;51.514;-0.178;2023-03-30T06:39:11;99945.88;;;13.23;89.50
43420;BME280;29017;51.514;-0.178;2023-03-30T06:41:38;99945.34;;;13.35;89.22
43420;BME280;29017;51.514;-0.178;2023-03-30T06:44:05;99944.19;;;13.44;88.45
43420;BME280;29017;51.514;-0.178;2023-03-30T06:46:35;99954.59;;;13.52;88.60
43420;BME280;29017;51.514;-0.178;2023-03-30T06:49:02;99952.66;;;13.60;87.67
43420;BME280;29017;51.514;-0.178;2023-03-30T06:51:29;99948.00;;;13.69;88.32
43420;BME280;29017;51.514;-0.178;2023-03-30T06:53:56;99953.53;;;13.74;87.39
43420;BME280;29017;51.514;-0.178;2023-03-30T06:56:23;99961.28;;;13.76;86.17
43420;BME280;29017;51.514;-0.178;2023-03-30T06:58:50;99963.28;;;13.74;86.49
43420;BME280;29017;51.514;-0.178;2023-03-30T07:01:18;99965.09;;;13.73;86.67
43420;BME280;29017;51.514;-0.178;2023-03-30T07:03:45;99969.41;;;13.74;86.69
43420;BME280;29017;51.514;-0.178;2023-03-30T07:06:13;99972.84;;;13.75;86.29
43420;BME280;29017;51.514;-0.178;2023-03-30T07:08:43;99976.75;;;13.79;86.03
43420;BME280;29017;51.514;-0.178;2023-03-30T07:11:10;99972.69;;;13.83;85.66
43420;BME280;29017;51.514;-0.178;2023-03-30T07:13:37;99976.78;;;13.85;85.65
43420;BME280;29017;51.514;-0.178;2023-03-30T07:16:05;99977.38;;;13.87;85.77
43420;BME280;29017;51.514;-0.178;2023-03-30T07:18:32;99973.94;;;13.87;85.75
43420;BME280;29017;51.514;-0.178;2023-03-30T07:20:59;99983.13;;;13.91;85.88
43420;BME280;29017;51.514;-0.178;2023-03-30T07:23:26;99978.25;;;13.94;85.99
43420;BME280;29017;51.514;-0.178;2023-03-30T07:25:54;99987.81;;;13.95;86.09
43420;BME280;29017;51.514;-0.178;2023-03-30T07:28:21;99984.97;;;13.97;85.67
43420;BME280;29017;51.514;-0.178;2023-03-30T07:30:51;99991.06;;;13.97;85.83
43420;BME280;29017;51.514;-0.178;2023-03-30T07:33:18;99985.78;;;13.97;85.64
43420;BME280;29017;51.514;-0.178;2023-03-30T07:35:47;99987.59;;;13.97;85.15
43420;BME280;29017;51.514;-0.178;2023-03-30T07:38:15;99989.25;;;13.91;84.73
43420;BME280;29017;51.514;-0.178;2023-03-30T07:40:43;100001.06;;;13.95;85.27
43420;BME280;29017;51.514;-0.178;2023-03-30T07:43:10;99998.63;;;14.00;85.38
43420;BME280;29017;51.514;-0.178;2023-03-30T07:45:37;99990.94;;;14.05;85.19
43420;BME280;29017;51.514;-0.178;2023-03-30T07:48:04;99994.81;;;14.09;84.81
43420;BME280;29017;51.514;-0.178;2023-03-30T07:50:31;100004.81;;;14.14;85.14
43420;BME280;29017;51.514;-0.178;2023-03-30T07:52:58;100007.25;;;14.16;84.39
43420;BME280;29017;51.514;-0.178;2023-03-30T07:55:25;100002.97;;;14.14;84.26
43420;BME280;29017;51.514;-0.178;2023-03-30T07:57:54;99998.31;;;14.17;84.76
43420;BME280;29017;51.514;-0.178;2023-03-30T08:00:23;100004.03;;;14.20;84.59
43420;BME280;29017;51.514;-0.178;2023-03-30T08:02:50;100006.25;;;14.23;84.45
43420;BME280;29017;51.514;-0.178;2023-03-30T08:05:17;99998.97;;;14.25;84.02
43420;BME280;29017;51.514;-0.178;2023-03-30T08:07:45;100001.66;;;14.32;83.84
43420;BME280;29017;51.514;-0.178;2023-03-30T08:10:12;100006.59;;;14.41;83.83
43420;BME280;29017;51.514;-0.178;2023-03-30T08:12:40;100006.41;;;14.49;83.37
43420;BME280;29017;51.514;-0.178;2023-03-30T08:15:07;100005.25;;;14.65;82.88
43420;BME280;29017;51.514;-0.178;2023-03-30T08:17:35;100009.16;;;14.82;82.56
43420;BME280;29017;51.514;-0.178;2023-03-30T08:20:02;100005.09;;;14.86;81.45
43420;BME280;29017;51.514;-0.178;2023-03-30T08:22:33;100020.78;;;14.94;81.50
43420;BME280;29017;51.514;-0.178;2023-03-30T08:25:01;100020.59;;;15.09;80.31
43420;BME280;29017;51.514;-0.178;2023-03-30T08:27:28;100019.41;;;15.18;79.68
43420;BME280;29017;51.514;-0.178;2023-03-30T08:29:55;100026.31;;;15.19;79.86
43420;BME280;29017;51.514;-0.178;2023-03-30T08:32:22;100035.72;;;15.22;79.99
43420;BME280;29017;51.514;-0.178;2023-03-30T08:34:49;100040.81;;;15.17;79.37
43420;BME280;29017;51.514;-0.178;2023-03-30T08:37:17;100034.28;;;15.19;80.18
43420;BME280;29017;51.514;-0.178;2023-03-30T08:39:44;100040.19;;;15.21;79.86
43420;BME280;29017;51.514;-0.178;2023-03-30T08:44:41;100034.91;;;15.28;79.05
43420;BME280;29017;51.514;-0.178;2023-03-30T08:47:11;100044.28;;;15.37;79.49
43420;BME280;29017;51.514;-0.178;2023-03-30T08:49:41;100038.16;;;15.36;79.54
43420;BME280;29017;51.514;-0.178;2023-03-30T08:52:12;100045.09;;;15.44;79.08
43420;BME280;29017;51.514;-0.178;2023-03-30T08:54:40;100044.94;;;15.52;80.07
43420;BME280;29017;51.514;-0.178;2023-03-30T09:02:23;100049.63;;;15.63;77.67
43420;BME280;29017;51.514;-0.178;2023-03-30T09:07:24;100046.78;;;15.58;77.96
43420;BME280;29017;51.514;-0.178;2023-03-30T09:09:53;100047.38;;;15.60;77.36
43420;BME280;29017;51.514;-0.178;2023-03-30T09:12:33;100056.16;;;15.67;77.02
43420;BME280;29017;51.514;-0.178;2023-03-30T09:17:42;100065.13;;;15.73;77.28
43420;BME280;29017;51.514;-0.178;2023-03-30T09:22:46;100066.38;;;15.64;76.31
43420;BME280;29017;51.514;-0.178;2023-03-30T09:25:15;100058.59;;;15.69;76.08
43420;BME280;29017;51.514;-0.178;2023-03-30T09:27:44;100058.00;;;15.73;75.16
43420;BME280;29017;51.514;-0.178;2023-03-30T09:30:19;100054.72;;;15.78;75.68
43420;BME280;29017;51.514;-0.178;2023-03-30T09:32:48;100061.22;;;15.75;75.96
43420;BME280;29017;51.514;-0.178;2023-03-30T09:35:21;100069.19;;;15.75;76.70
43420;BME280;29017;51.514;-0.178;2023-03-30T09:37:51;100072.91;;;15.74;77.30
43420;BME280;29017;51.514;-0.178;2023-03-30T09:40:21;100074.09;;;15.72;77.93
43420;BME280;29017;51.514;-0.178;2023-03-30T09:42:51;100069.59;;;15.66;78.75
43420;BME280;29017;51.514;-0.178;2023-03-30T09:45:27;100067.56;;;15.61;79.72
43420;BME280;29017;51.514;-0.178;2023-03-30T09:48:02;100074.31;;;15.64;80.54
43420;BME280;29017;51.514;-0.178;2023-03-30T09:50:29;100070.03;;;15.69;80.58
43420;BME280;29017;51.514;-0.178;2023-03-30T09:52:58;100068.16;;;15.70;80.93
43420;BME280;29017;51.514;-0.178;2023-03-30T09:55:26;100076.56;;;15.73;80.17
43420;BME280;29017;51.514;-0.178;2023-03-30T09:58:08;100077.56;;;15.79;79.76
43420;BME280;29017;51.514;-0.178;2023-03-30T10:00:36;100078.19;;;15.88;79.48
43420;BME280;29017;51.514;-0.178;2023-03-30T10:03:05;100080.41;;;15.91;77.95
43420;BME280;29017;51.514;-0.178;2023-03-30T10:05:33;100073.50;;;15.90;77.78
43420;BME280;29017;51.514;-0.178;2023-03-30T10:08:03;100071.81;;;15.95;78.71
43420;BME280;29017;51.514;-0.178;2023-03-30T10:10:34;100066.31;;;16.03;78.10
43420;BME280;29017;51.514;-0.178;2023-03-30T10:15:30;100077.69;;;16.30;78.87
43420;BME280;29017;51.514;-0.178;2023-03-30T10:18:01;100085.00;;;16.41;77.59
43420;BME280;29017;51.514;-0.178;2023-03-30T10:20:32;100091.75;;;16.44;76.12
43420;BME280;29017;51.514;-0.178;2023-03-30T10:23:03;100097.69;;;16.39;76.69
43420;BME280;29017;51.514;-0.178;2023-03-30T10:25:31;100095.22;;;16.38;77.49
43420;BME280;29017;51.514;-0.178;2023-03-30T10:28:00;100096.47;;;16.35;76.90
43420;BME280;29017;51.514;-0.178;2023-03-30T10:30:28;100091.56;;;16.39;76.96
43420;BME280;29017;51.514;-0.178;2023-03-30T10:32:56;100086.44;;;16.37;77.26
43420;BME280;29017;51.514;-0.178;2023-03-30T10:38:01;100091.31;;;16.60;75.45
43420;BME280;29017;51.514;-0.178;2023-03-30T10:40:34;100088.97;;;16.77;75.59
43420;BME280;29017;51.514;-0.178;2023-03-30T10:43:04;100091.38;;;16.91;73.15
43420;BME280;29017;51.514;-0.178;2023-03-30T10:50:38;100089.03;;;17.08;72.45
43420;BME280;29017;51.514;-0.178;2023-03-30T10:58:18;100088.06;;;17.34;71.39
43420;BME280;29017;51.514;-0.178;2023-03-30T11:03:26;100085.56;;;17.39;69.89
43420;BME280;29017;51.514;-0.178;2023-03-30T11:05:56;100077.53;;;17.45;70.19
43420;BME280;29017;51.514;-0.178;2023-03-30T11:08:28;100093.66;;;17.50;69.83
43420;BME280;29017;51.514;-0.178;2023-03-30T11:10:56;100077.91;;;17.49;70.34
43420;BME280;29017;51.514;-0.178;2023-03-30T11:13:25;100093.13;;;17.42;70.38
43420;BME280;29017;51.514;-0.178;2023-03-30T11:26:10;100079.53;;;17.25;73.77
43420;BME280;29017;51.514;-0.178;2023-03-30T11:28:42;100078.28;;;17.28;73.58
43420;BME280;29017;51.514;-0.178;2023-03-30T11:31:22;100076.44;;;17.28;74.43
43420;BME280;29017;51.514;-0.178;2023-03-30T11:33:55;100080.28;;;17.32;73.61
43420;BME280;29017;51.514;-0.178;2023-03-30T11:36:26;100078.22;;;17.34;72.97
43420;BME280;29017;51.514;-0.178;2023-03-30T11:38:59;100086.66;;;17.31;72.68
43420;BME280;29017;51.514;-0.178;2023-03-30T11:41:46;100080.72;;;17.29;73.25
43420;BME280;29017;51.514;-0.178;2023-03-30T11:44:14;100085.56;;;17.39;72.71
43420;BME280;29017;51.514;-0.178;2023-03-30T11:46:46;100068.53;;;17.46;72.00
43420;BME280;29017;51.514;-0.178;2023-03-30T11:49:20;100076.44;;;17.53;69.99
43420;BME280;29017;51.514;-0.178;2023-03-30T11:59:31;100076.75;;;17.70;69.29
43420;BME280;29017;51.514;-0.178;2023-03-30T12:04:44;100076.47;;;17.78;67.98
43420;BME280;29017;51.514;-0.178;2023-03-30T12:07:18;100078.94;;;17.79;67.25
43420;BME280;29017;51.514;-0.178;2023-03-30T12:09:53;100072.56;;;17.80;67.41
43420;BME280;29017;51.514;-0.178;2023-03-30T12:12:25;100079.38;;;17.76;66.95
43420;BME280;29017;51.514;-0.178;2023-03-30T12:25:06;100086.69;;;17.56;74.44
43420;BME280;29017;51.514;-0.178;2023-03-30T12:27:50;100072.97;;;17.59;76.20
43420;BME280;29017;51.514;-0.178;2023-03-30T12:30:27;100062.94;;;17.61;75.07
43420;BME280;29017;51.514;-0.178;2023-03-30T12:32:59;100064.78;;;17.54;72.57
43420;BME280;29017;51.514;-0.178;2023-03-30T12:35:44;100053.31;;;17.60;71.67
43420;BME280;29017;51.514;-0.178;2023-03-30T12:38:14;100059.25;;;17.62;69.63
43420;BME280;29017;51.514;-0.178;2023-03-30T12:40:45;100059.25;;;17.62;68.23
43420;BME280;29017;51.514;-0.178;2023-03-30T12:45:47;100065.75;;;17.66;68.09
43420;BME280;29017;51.514;-0.178;2023-03-30T12:51:06;100056.09;;;17.72;67.51
43420;BME280;29017;51.514;-0.178;2023-03-30T12:53:46;100054.25;;;17.72;67.77
43420;BME280;29017;51.514;-0.178;2023-03-30T12:56:23;100052.91;;;17.81;67.78
43420;BME280;29017;51.514;-0.178;2023-03-30T13:03:59;100022.63;;;17.82;66.46
43420;BME280;29017;51.514;-0.178;2023-03-30T13:06:31;100028.88;;;17.88;66.93
43420;BME280;29017;51.514;-0.178;2023-03-30T13:12:13;100032.44;;;18.00;65.93
43420;BME280;29017;51.514;-0.178;2023-03-30T13:14:25;100034.91;;;18.02;65.38
43420;BME280;29017;51.514;-0.178;2023-03-30T13:21:48;100035.78;;;17.95;64.98
43420;BME280;29017;51.514;-0.178;2023-03-30T13:26:50;100031.84;;;17.98;65.07
43420;BME280;29017;51.514;-0.178;2023-03-30T13:29:18;100042.22;;;18.06;64.92
43420;BME280;29017;51.514;-0.178;2023-03-30T13:42:13;100031.22;;;18.03;66.04
43420;BME280;29017;51.514;-0.178;2023-03-30T13:44:47;100032.50;;;17.93;66.35
43420;BME280;29017;51.514;-0.178;2023-03-30T13:49:57;100046.06;;;17.92;69.29
43420;BME280;29017;51.514;-0.178;2023-03-30T13:52:27;100038.34;;;17.84;69.41
43420;BME280;29017;51.514;-0.178;2023-03-30T13:54:56;100025.03;;;17.84;68.31
43420;BME280;29017;51.514;-0.178;2023-03-30T13:57:27;100022.16;;;17.85;68.05
43420;BME280;29017;51.514;-0.178;2023-03-30T13:59:59;100023.25;;;17.78;68.36
43420;BME280;29017;51.514;-0.178;2023-03-30T14:02:28;100021.84;;;17.75;67.77
43420;BME280;29017;51.514;-0.178;2023-03-30T14:07:38;100014.00;;;17.62;67.95
43420;BME280;29017;51.514;-0.178;2023-03-30T14:10:16;100015.66;;;17.57;67.36
43420;BME280;29017;51.514;-0.178;2023-03-30T14:12:44;100022.41;;;17.52;66.93
43420;BME280;29017;51.514;-0.178;2023-03-30T14:15:15;100019.19;;;17.50;67.92
43420;BME280;29017;51.514;-0.178;2023-03-30T14:17:45;100013.66;;;17.52;67.88
43420;BME280;29017;51.514;-0.178;2023-03-30T14:22:42;100008.19;;;17.47;68.27
43420;BME280;29017;51.514;-0.178;2023-03-30T14:27:48;100011.75;;;17.59;68.77
43420;BME280;29017;51.514;-0.178;2023-03-30T14:30:19;100024.50;;;17.75;67.75
43420;BME280;29017;51.514;-0.178;2023-03-30T14:32:46;100014.19;;;17.85;67.83
43420;BME280;29017;51.514;-0.178;2023-03-30T14:35:14;100018.47;;;17.86;68.05
43420;BME280;29017;51.514;-0.178;2023-03-30T14:37:42;100016.84;;;17.85;66.45
43420;BME280;29017;51.514;-0.178;2023-03-30T14:40:17;100013.41;;;17.78;66.10
43420;BME280;29017;51.514;-0.178;2023-03-30T14:42:45;100006.66;;;17.82;66.14
43420;BME280;29017;51.514;-0.178;2023-03-30T14:45:14;100005.53;;;17.90;65.56
43420;BME280;29017;51.514;-0.178;2023-03-30T14:47:44;100011.47;;;17.92;64.97
43420;BME280;29017;51.514;-0.178;2023-03-30T14:50:13;100014.63;;;17.82;64.35
43420;BME280;29017;51.514;-0.178;2023-03-30T14:52:42;100007.44;;;17.83;65.39
43420;BME280;29017;51.514;-0.178;2023-03-30T14:55:13;100027.28;;;17.87;65.03
43420;BME280;29017;51.514;-0.178;2023-03-30T14:57:44;100013.72;;;17.88;64.93
43420;BME280;29017;51.514;-0.178;2023-03-30T15:00:13;100006.78;;;17.87;65.12
43420;BME280;29017;51.514;-0.178;2023-03-30T15:02:48;100015.88;;;17.80;65.52
43420;BME280;29017;51.514;-0.178;2023-03-30T15:05:16;100004.63;;;17.78;65.10
43420;BME280;29017;51.514;-0.178;2023-03-30T15:07:45;100004.63;;;17.78;66.02
43420;BME280;29017;51.514;-0.178;2023-03-30T15:12:49;100001.38;;;17.76;65.96
43420;BME280;29017;51.514;-0.178;2023-03-30T15:15:24;99999.53;;;17.76;65.18
43420;BME280;29017;51.514;-0.178;2023-03-30T15:17:52;100001.59;;;17.74;64.05
43420;BME280;29017;51.514;-0.178;2023-03-30T15:20:22;99998.88;;;17.81;64.77
43420;BME280;29017;51.514;-0.178;2023-03-30T15:22:50;100009.72;;;17.79;64.59
43420;BME280;29017;51.514;-0.178;2023-03-30T15:25:18;100003.81;;;17.77;63.77
43420;BME280;29017;51.514;-0.178;2023-03-30T15:27:53;99995.44;;;17.74;64.30
43420;BME280;29017;51.514;-0.178;2023-03-30T15:30:27;99996.31;;;17.68;64.24